createdAt,value
2022-12-07T00:00:33.067Z,1009.61
2022-12-07T00:01:33.054Z,1009.62
2022-12-07T00:02:33.131Z,1009.61
2022-12-07T00:03:33.123Z,1009.60
2022-12-07T00:04:33.021Z,1009.54
2022-12-07T00:05:33.029Z,1009.61
2022-12-07T00:06:32.999Z,1009.55
2022-12-07T00:07:32.992Z,1009.59
2022-12-07T00:08:33.002Z,1009.54
2022-12-07T00:09:32.970Z,1009.54
2022-12-07T00:10:32.954Z,1009.51
2022-12-07T00:11:32.946Z,1009.55
2022-12-07T00:12:32.940Z,1009.54
2022-12-07T00:13:32.931Z,1009.47
2022-12-07T00:14:32.928Z,1009.46
2022-12-07T00:15:32.908Z,1009.52
2022-12-07T00:16:32.986Z,1009.52
2022-12-07T00:17:32.875Z,1009.48
2022-12-07T00:18:32.873Z,1009.53
2022-12-07T00:19:32.868Z,1009.51
2022-12-07T00:20:32.839Z,1009.46
2022-12-07T00:21:32.857Z,1009.44
2022-12-07T00:22:32.829Z,1009.40
2022-12-07T00:23:32.802Z,1009.40
2022-12-07T00:24:32.806Z,1009.45
2022-12-07T00:25:32.785Z,1009.45
2022-12-07T00:26:32.795Z,1009.51
2022-12-07T00:27:32.766Z,1009.46
2022-12-07T00:28:32.751Z,1009.43
2022-12-07T00:29:32.749Z,1009.50
2022-12-07T00:30:32.735Z,1009.52
2022-12-07T00:31:32.791Z,1009.43
2022-12-07T00:32:32.721Z,1009.48
2022-12-07T00:33:32.697Z,1009.43
2022-12-07T00:34:32.684Z,1009.41
2022-12-07T00:35:32.678Z,1009.36
2022-12-07T00:36:32.666Z,1009.40
2022-12-07T00:37:32.679Z,1009.38
2022-12-07T00:38:32.649Z,1009.41
2022-12-07T00:39:32.625Z,1009.37
2022-12-07T00:40:32.620Z,1009.32
2022-12-07T00:41:32.602Z,1009.42
2022-12-07T00:42:32.599Z,1009.44
2022-12-07T00:43:32.612Z,1009.32
2022-12-07T00:44:32.578Z,1009.33
2022-12-07T00:45:32.599Z,1009.40
2022-12-07T00:46:32.629Z,1009.36
2022-12-07T00:47:32.547Z,1009.31
2022-12-07T00:48:32.530Z,1009.32
2022-12-07T00:49:32.546Z,1009.27
2022-12-07T00:50:32.506Z,1009.32
2022-12-07T00:51:32.492Z,1009.34
2022-12-07T00:52:32.488Z,1009.33
2022-12-07T00:53:35.544Z,1009.30
2022-12-07T00:54:33.508Z,1009.30
2022-12-07T00:55:32.463Z,1009.29
2022-12-07T00:56:32.440Z,1009.26
2022-12-07T00:57:32.430Z,1009.29
2022-12-07T00:58:32.417Z,1009.27
2022-12-07T00:59:32.405Z,1009.34
2022-12-07T01:00:32.434Z,1009.34
2022-12-07T01:01:32.449Z,1009.34
2022-12-07T01:02:32.374Z,1009.35
2022-12-07T01:03:32.404Z,1009.42
2022-12-07T01:04:32.365Z,1009.39
2022-12-07T01:05:32.338Z,1009.37
2022-12-07T01:06:32.342Z,1009.31
2022-12-07T01:07:32.315Z,1009.37
2022-12-07T01:08:32.308Z,1009.35
2022-12-07T01:09:32.322Z,1009.37
2022-12-07T01:10:32.287Z,1009.37
2022-12-07T01:11:32.276Z,1009.33
2022-12-07T01:12:32.280Z,1009.34
2022-12-07T01:13:32.247Z,1009.38
2022-12-07T01:14:32.250Z,1009.35
2022-12-07T01:15:32.241Z,1009.43
2022-12-07T01:16:32.290Z,1009.37
2022-12-07T01:17:32.222Z,1009.33
2022-12-07T01:18:32.196Z,1009.36
2022-12-07T01:19:32.191Z,1009.37
2022-12-07T01:20:32.184Z,1009.39
2022-12-07T01:21:32.161Z,1009.32
2022-12-07T01:22:32.156Z,1009.42
2022-12-07T01:23:32.151Z,1009.33
2022-12-07T01:24:32.136Z,1009.34
2022-12-07T01:25:32.146Z,1009.35
2022-12-07T01:26:32.110Z,1009.33
2022-12-07T01:27:32.098Z,1009.35
2022-12-07T01:28:32.100Z,1009.36
2022-12-07T01:29:32.098Z,1009.37
2022-12-07T01:30:32.124Z,1009.33
2022-12-07T01:31:32.064Z,1009.35
2022-12-07T01:32:32.044Z,1009.39
2022-12-07T01:33:32.034Z,1009.38
2022-12-07T01:34:32.036Z,1009.39
2022-12-07T01:35:32.034Z,1009.42
2022-12-07T01:36:32.012Z,1009.40
2022-12-07T01:37:31.990Z,1009.34
2022-12-07T01:38:31.977Z,1009.36
2022-12-07T01:39:31.971Z,1009.32
2022-12-07T01:40:31.959Z,1009.31
2022-12-07T01:41:31.976Z,1009.35
2022-12-07T01:42:31.941Z,1009.33
2022-12-07T01:43:31.918Z,1009.34
2022-12-07T01:44:31.917Z,1009.38
2022-12-07T01:45:31.899Z,1009.42
2022-12-07T01:46:32.038Z,1009.39
2022-12-07T01:47:31.881Z,1009.47
2022-12-07T01:48:31.886Z,1009.38
2022-12-07T01:49:31.855Z,1009.39
2022-12-07T01:50:31.847Z,1009.37
2022-12-07T01:51:31.841Z,1009.36
2022-12-07T01:52:31.821Z,1009.35
2022-12-07T01:53:31.807Z,1009.32
2022-12-07T01:54:31.808Z,1009.36
2022-12-07T01:55:31.803Z,1009.32
2022-12-07T01:56:31.789Z,1009.35
2022-12-07T01:57:31.788Z,1009.33
2022-12-07T01:58:31.757Z,1009.32
2022-12-07T01:59:31.752Z,1009.33
2022-12-07T02:00:31.733Z,1009.36
2022-12-07T02:01:31.803Z,1009.32
2022-12-07T02:02:31.767Z,1009.34
2022-12-07T02:03:31.706Z,1009.34
2022-12-07T02:04:31.697Z,1009.36
2022-12-07T02:05:31.679Z,1009.40
2022-12-07T02:06:31.682Z,1009.43
2022-12-07T02:07:31.657Z,1009.42
2022-12-07T02:08:31.645Z,1009.43
2022-12-07T02:09:31.649Z,1009.40
2022-12-07T02:10:31.637Z,1009.36
2022-12-07T02:11:31.619Z,1009.39
2022-12-07T02:12:31.601Z,1009.33
2022-12-07T02:13:31.620Z,1009.35
2022-12-07T02:14:31.583Z,1009.37
2022-12-07T02:15:31.630Z,1009.39
2022-12-07T02:16:31.571Z,1009.42
2022-12-07T02:17:31.557Z,1009.36
2022-12-07T02:18:31.538Z,1009.39
2022-12-07T02:19:31.532Z,1009.36
2022-12-07T02:20:31.514Z,1009.35
2022-12-07T02:21:31.503Z,1009.41
2022-12-07T02:22:31.511Z,1009.31
2022-12-07T02:23:31.477Z,1009.36
2022-12-07T02:24:31.471Z,1009.32
2022-12-07T02:25:31.460Z,1009.32
2022-12-07T02:26:31.456Z,1009.27
2022-12-07T02:27:31.437Z,1009.32
2022-12-07T02:28:31.444Z,1009.20
2022-12-07T02:29:31.433Z,1009.20
2022-12-07T02:30:31.403Z,1009.17
2022-12-07T02:31:31.439Z,1009.27
2022-12-07T02:32:31.380Z,1009.19
2022-12-07T02:33:31.378Z,1009.25
2022-12-07T02:34:31.361Z,1009.30
2022-12-07T02:35:31.354Z,1009.36
2022-12-07T02:36:31.337Z,1009.34
2022-12-07T02:37:31.326Z,1009.33
2022-12-07T02:38:31.320Z,1009.29
2022-12-07T02:39:31.302Z,1009.24
2022-12-07T02:40:31.292Z,1009.34
2022-12-07T02:41:31.303Z,1009.32
2022-12-07T02:42:31.271Z,1009.23
2022-12-07T02:43:31.273Z,1009.27
2022-12-07T02:44:31.244Z,1009.25
2022-12-07T02:45:31.258Z,1009.25
2022-12-07T02:46:31.310Z,1009.32
2022-12-07T02:47:31.225Z,1009.29
2022-12-07T02:48:31.202Z,1009.31
2022-12-07T02:49:31.218Z,1009.27
2022-12-07T02:50:31.179Z,1009.31
2022-12-07T02:51:31.193Z,1009.29
2022-12-07T02:52:31.156Z,1009.29
2022-12-07T02:53:31.151Z,1009.30
2022-12-07T02:54:31.147Z,1009.35
2022-12-07T02:55:31.136Z,1009.35
2022-12-07T02:56:31.113Z,1009.33
2022-12-07T02:57:31.105Z,1009.30
2022-12-07T02:58:31.092Z,1009.29
2022-12-07T02:59:31.085Z,1009.34
2022-12-07T03:00:31.097Z,1009.31
2022-12-07T03:01:31.140Z,1009.30
2022-12-07T03:02:31.320Z,1009.32
2022-12-07T03:03:31.041Z,1009.29
2022-12-07T03:04:31.022Z,1009.27
2022-12-07T03:05:31.017Z,1009.36
2022-12-07T03:06:31.013Z,1009.27
2022-12-07T03:07:31.007Z,1009.28
2022-12-07T03:08:30.987Z,1009.32
2022-12-07T03:09:30.977Z,1009.19
2022-12-07T03:10:30.955Z,1009.32
2022-12-07T03:11:30.969Z,1009.21
2022-12-07T03:12:30.955Z,1009.30
2022-12-07T03:13:31.893Z,1009.26
2022-12-07T03:14:30.914Z,1009.25
2022-12-07T03:15:30.958Z,1009.25
2022-12-07T03:16:30.892Z,1009.26
2022-12-07T03:17:30.919Z,1009.25
2022-12-07T03:18:30.878Z,1009.26
2022-12-07T03:19:30.874Z,1009.25
2022-12-07T03:20:30.848Z,1009.29
2022-12-07T03:21:30.842Z,1009.31
2022-12-07T03:22:30.824Z,1009.29
2022-12-07T03:23:30.828Z,1009.17
2022-12-07T03:24:30.802Z,1009.27
2022-12-07T03:25:30.806Z,1009.22
2022-12-07T03:26:30.794Z,1009.22
2022-12-07T03:27:30.776Z,1009.11
2022-12-07T03:28:30.772Z,1009.14
2022-12-07T03:29:30.757Z,1009.16
2022-12-07T03:30:30.752Z,1009.10
2022-12-07T03:31:31.496Z,1009.10
2022-12-07T03:32:30.729Z,1009.14
2022-12-07T03:33:30.744Z,1009.08
2022-12-07T03:34:31.384Z,1009.15
2022-12-07T03:35:30.715Z,1009.13
2022-12-07T03:36:30.672Z,1009.18
2022-12-07T03:37:30.677Z,1009.15
2022-12-07T03:38:30.661Z,1009.08
2022-12-07T03:39:30.690Z,1009.01
2022-12-07T03:40:30.645Z,1009.09
2022-12-07T03:41:30.625Z,1009.08
2022-12-07T03:42:30.606Z,1009.05
2022-12-07T03:43:30.608Z,1008.97
2022-12-07T03:44:30.594Z,1009.01
2022-12-07T03:45:30.580Z,1009.08
2022-12-07T03:46:30.656Z,1009.06
2022-12-07T03:47:30.553Z,1009.08
2022-12-07T03:48:30.540Z,1009.09
2022-12-07T03:49:30.569Z,1009.07
2022-12-07T03:50:30.518Z,1009.06
2022-12-07T03:51:30.507Z,1009.08
2022-12-07T03:52:30.528Z,1009.05
2022-12-07T03:53:30.487Z,1009.07
2022-12-07T03:54:30.476Z,1009.03
2022-12-07T03:55:30.472Z,1009.07
2022-12-07T03:56:30.455Z,1009.05
2022-12-07T03:57:30.443Z,1009.06
2022-12-07T03:58:30.455Z,1009.02
2022-12-07T03:59:30.419Z,1009.04
2022-12-07T04:00:30.431Z,1009.05
2022-12-07T04:01:30.480Z,1009.08
2022-12-07T04:02:30.459Z,1009.04
2022-12-07T04:03:30.375Z,1009.06
2022-12-07T04:04:30.388Z,1008.99
2022-12-07T04:05:30.382Z,1009.03
2022-12-07T04:06:30.351Z,1009.05
2022-12-07T04:07:30.348Z,1009.10
2022-12-07T04:08:30.318Z,1008.97
2022-12-07T04:09:30.314Z,1009.02
2022-12-07T04:10:30.306Z,1009.03
2022-12-07T04:11:30.294Z,1009.03
2022-12-07T04:12:30.275Z,1009.08
2022-12-07T04:13:30.266Z,1009.05
2022-12-07T04:14:30.252Z,1009.04
2022-12-07T04:15:30.249Z,1009.03
2022-12-07T04:16:30.304Z,1009.00
2022-12-07T04:17:30.245Z,1009.08
2022-12-07T04:18:30.212Z,1009.07
2022-12-07T04:19:30.200Z,1009.13
2022-12-07T04:20:30.186Z,1009.13
2022-12-07T04:21:30.211Z,1009.16
2022-12-07T04:22:30.180Z,1009.15
2022-12-07T04:23:30.155Z,1009.24
2022-12-07T04:24:30.156Z,1009.17
2022-12-07T04:25:30.132Z,1009.15
2022-12-07T04:26:30.128Z,1009.17
2022-12-07T04:27:30.113Z,1009.15
2022-12-07T04:28:30.098Z,1009.12
2022-12-07T04:29:30.092Z,1009.12
2022-12-07T04:30:30.105Z,1009.14
2022-12-07T04:31:30.097Z,1009.19
2022-12-07T04:32:30.065Z,1009.18
2022-12-07T04:33:30.045Z,1009.19
2022-12-07T04:34:30.040Z,1009.16
2022-12-07T04:35:30.025Z,1009.09
2022-12-07T04:36:30.016Z,1009.09
2022-12-07T04:37:30.037Z,1009.16
2022-12-07T04:38:29.998Z,1009.14
2022-12-07T04:39:30.000Z,1009.17
2022-12-07T04:40:29.966Z,1009.15
2022-12-07T04:41:29.961Z,1009.16
2022-12-07T04:42:29.950Z,1009.14
2022-12-07T04:43:29.945Z,1009.12
2022-12-07T04:44:29.923Z,1009.17
2022-12-07T04:45:29.918Z,1009.13
2022-12-07T04:46:29.997Z,1009.08
2022-12-07T04:47:29.902Z,1009.08
2022-12-07T04:48:29.875Z,1009.18
2022-12-07T04:49:29.891Z,1009.14
2022-12-07T04:50:29.873Z,1009.16
2022-12-07T04:51:29.848Z,1009.15
2022-12-07T04:52:29.834Z,1009.02
2022-12-07T04:53:29.855Z,1009.05
2022-12-07T04:54:29.809Z,1009.09
2022-12-07T04:55:29.824Z,1009.00
2022-12-07T04:56:29.790Z,1009.05
2022-12-07T04:57:29.784Z,1008.98
2022-12-07T04:58:29.761Z,1009.02
2022-12-07T04:59:29.764Z,1009.01
2022-12-07T05:00:29.805Z,1008.99
2022-12-07T05:01:29.743Z,1009.02
2022-12-07T05:02:29.793Z,1009.01
2022-12-07T05:03:29.714Z,1008.98
2022-12-07T05:04:29.697Z,1009.02
2022-12-07T05:05:29.692Z,1009.01
2022-12-07T05:06:29.712Z,1009.03
2022-12-07T05:07:29.669Z,1008.98
2022-12-07T05:08:29.656Z,1009.02
2022-12-07T05:09:29.667Z,1009.01
2022-12-07T05:10:29.635Z,1009.08
2022-12-07T05:11:29.636Z,1009.00
2022-12-07T05:12:29.647Z,1009.01
2022-12-07T05:13:29.627Z,1009.01
2022-12-07T05:14:29.588Z,1009.08
2022-12-07T05:15:29.579Z,1009.01
2022-12-07T05:16:29.615Z,1009.07
2022-12-07T05:17:29.558Z,1009.11
2022-12-07T05:18:29.563Z,1009.06
2022-12-07T05:19:29.543Z,1009.04
2022-12-07T05:20:29.524Z,1009.08
2022-12-07T05:21:29.514Z,1009.11
2022-12-07T05:22:29.515Z,1009.08
2022-12-07T05:23:29.494Z,1009.11
2022-12-07T05:24:29.505Z,1009.14
2022-12-07T05:25:29.489Z,1009.08
2022-12-07T05:26:29.463Z,1009.10
2022-12-07T05:27:29.463Z,1009.12
2022-12-07T05:28:29.433Z,1009.11
2022-12-07T05:29:29.432Z,1009.14
2022-12-07T05:30:29.440Z,1009.10
2022-12-07T05:31:29.494Z,1009.11
2022-12-07T05:32:29.393Z,1009.11
2022-12-07T05:33:29.382Z,1009.10
2022-12-07T05:34:29.379Z,1009.10
2022-12-07T05:35:29.368Z,1009.04
2022-12-07T05:36:29.385Z,1009.04
2022-12-07T05:37:29.337Z,1009.09
2022-12-07T05:38:29.323Z,1009.03
2022-12-07T05:39:29.319Z,1008.95
2022-12-07T05:40:29.317Z,1009.05
2022-12-07T05:41:29.323Z,1009.05
2022-12-07T05:42:29.306Z,1009.03
2022-12-07T05:43:29.275Z,1008.98
2022-12-07T05:44:29.267Z,1008.94
2022-12-07T05:45:29.331Z,1009.03
2022-12-07T05:46:29.248Z,1008.93
2022-12-07T05:47:29.247Z,1008.95
2022-12-07T05:48:29.908Z,1008.90
2022-12-07T05:49:29.202Z,1008.89
2022-12-07T05:50:29.193Z,1008.81
2022-12-07T05:51:29.188Z,1008.87
2022-12-07T05:52:29.175Z,1008.85
2022-12-07T05:53:29.170Z,1008.86
2022-12-07T05:54:29.185Z,1008.90
2022-12-07T05:55:29.142Z,1008.86
2022-12-07T05:56:29.126Z,1008.87
2022-12-07T05:57:29.152Z,1008.85
2022-12-07T05:58:29.108Z,1008.87
2022-12-07T05:59:29.090Z,1008.90
2022-12-07T06:00:29.118Z,1008.90
2022-12-07T06:01:29.074Z,1008.91
2022-12-07T06:02:29.214Z,1008.89
2022-12-07T06:03:29.179Z,1008.86
2022-12-07T06:04:29.043Z,1008.85
2022-12-07T06:05:29.032Z,1008.94
2022-12-07T06:06:29.156Z,1008.93
2022-12-07T06:07:29.033Z,1008.90
2022-12-07T06:08:29.004Z,1008.88
2022-12-07T06:09:28.997Z,1008.89
2022-12-07T06:10:28.972Z,1008.83
2022-12-07T06:11:28.958Z,1008.86
2022-12-07T06:12:28.959Z,1008.86
2022-12-07T06:13:28.965Z,1008.94
2022-12-07T06:14:28.931Z,1008.90
2022-12-07T06:15:28.915Z,1008.91
2022-12-07T06:16:28.967Z,1008.90
2022-12-07T06:17:28.894Z,1008.93
2022-12-07T06:18:28.893Z,1008.89
2022-12-07T06:19:28.896Z,1008.92
2022-12-07T06:20:28.864Z,1008.91
2022-12-07T06:21:28.855Z,1008.90
2022-12-07T06:22:28.843Z,1008.88
2022-12-07T06:23:28.836Z,1008.89
2022-12-07T06:24:28.843Z,1008.88
2022-12-07T06:25:28.806Z,1008.88
2022-12-07T06:26:28.798Z,1008.92
2022-12-07T06:27:28.781Z,1008.94
2022-12-07T06:28:28.782Z,1008.91
2022-12-07T06:29:28.787Z,1008.89
2022-12-07T06:30:28.752Z,1008.91
2022-12-07T06:31:28.861Z,1008.88
2022-12-07T06:32:28.727Z,1008.93
2022-12-07T06:33:28.721Z,1008.90
2022-12-07T06:34:28.733Z,1008.89
2022-12-07T06:35:28.693Z,1008.87
2022-12-07T06:36:28.689Z,1008.89
2022-12-07T06:37:28.669Z,1008.89
2022-12-07T06:38:28.665Z,1008.90
2022-12-07T06:39:28.657Z,1008.92
2022-12-07T06:40:28.645Z,1009.01
2022-12-07T06:41:28.627Z,1009.03
2022-12-07T06:42:28.620Z,1008.98
2022-12-07T06:43:28.611Z,1008.97
2022-12-07T06:44:28.605Z,1009.01
2022-12-07T06:45:28.613Z,1008.99
2022-12-07T06:46:28.696Z,1009.02
2022-12-07T06:47:44.963Z,1008.99
2022-12-07T06:48:29.554Z,1008.93
2022-12-07T06:49:28.539Z,1009.02
2022-12-07T06:50:28.542Z,1009.05
2022-12-07T06:51:28.518Z,1009.04
2022-12-07T06:52:28.526Z,1009.05
2022-12-07T06:53:28.505Z,1009.07
2022-12-07T06:54:28.484Z,1009.09
2022-12-07T06:55:28.474Z,1009.06
2022-12-07T06:56:28.466Z,1009.08
2022-12-07T06:57:28.452Z,1009.09
2022-12-07T06:58:28.454Z,1009.03
2022-12-07T06:59:28.432Z,1009.08
2022-12-07T07:00:28.423Z,1009.05
2022-12-07T07:01:28.469Z,1009.02
2022-12-07T07:02:28.476Z,1009.05
2022-12-07T07:03:28.385Z,1009.02
2022-12-07T07:04:28.390Z,1009.04
2022-12-07T07:05:28.360Z,1009.07
2022-12-07T07:06:28.354Z,1009.05
2022-12-07T07:07:28.356Z,1009.11
2022-12-07T07:08:28.399Z,1009.08
2022-12-07T07:09:28.317Z,1009.11
2022-12-07T07:10:28.352Z,1009.06
2022-12-07T07:11:28.291Z,1009.08
2022-12-07T07:12:28.289Z,1009.06
2022-12-07T07:13:28.289Z,1009.02
2022-12-07T07:14:28.355Z,1009.06
2022-12-07T07:15:28.250Z,1009.04
2022-12-07T07:16:28.354Z,1009.11
2022-12-07T07:17:28.245Z,1009.04
2022-12-07T07:18:28.239Z,1009.01
2022-12-07T07:19:28.217Z,1009.05
2022-12-07T07:20:28.291Z,1009.11
2022-12-07T07:21:28.188Z,1009.03
2022-12-07T07:22:28.178Z,1009.07
2022-12-07T07:23:28.167Z,1009.01
2022-12-07T07:24:28.178Z,1009.09
2022-12-07T07:25:28.154Z,1009.06
2022-12-07T07:26:28.132Z,1009.06
2022-12-07T07:27:28.120Z,1009.12
2022-12-07T07:28:28.113Z,1009.06
2022-12-07T07:29:28.094Z,1009.06
2022-12-07T07:30:28.327Z,1009.08
2022-12-07T07:31:28.129Z,1009.08
2022-12-07T07:32:28.066Z,1009.14
2022-12-07T07:33:28.073Z,1009.15
2022-12-07T07:34:28.045Z,1009.20
2022-12-07T07:35:28.031Z,1009.17
2022-12-07T07:36:28.030Z,1009.18
2022-12-07T07:37:28.033Z,1009.17
2022-12-07T07:38:28.008Z,1009.16
2022-12-07T07:39:28.018Z,1009.17
2022-12-07T07:40:28.079Z,1009.14
2022-12-07T07:41:27.966Z,1009.22
2022-12-07T07:42:27.956Z,1009.18
2022-12-07T07:43:27.945Z,1009.18
2022-12-07T07:44:34.509Z,1009.23
2022-12-07T07:45:28.935Z,1009.21
2022-12-07T07:46:28.008Z,1009.25
2022-12-07T07:47:27.907Z,1009.27
2022-12-07T07:48:27.891Z,1009.30
2022-12-07T07:49:27.895Z,1009.27
2022-12-07T07:50:27.973Z,1009.28
2022-12-07T07:51:27.855Z,1009.28
2022-12-07T07:52:27.849Z,1009.22
2022-12-07T07:53:27.834Z,1009.20
2022-12-07T07:54:27.831Z,1009.30
2022-12-07T07:55:27.828Z,1009.30
2022-12-07T07:56:27.856Z,1009.33
2022-12-07T07:57:27.788Z,1009.32
2022-12-07T07:58:27.781Z,1009.24
2022-12-07T07:59:27.767Z,1009.31
2022-12-07T08:00:27.830Z,1009.28
2022-12-07T08:01:27.800Z,1009.26
2022-12-07T08:02:27.735Z,1009.33
2022-12-07T08:03:27.722Z,1009.29
2022-12-07T08:04:27.739Z,1009.32
2022-12-07T08:05:27.731Z,1009.27
2022-12-07T08:06:31.966Z,1009.30
2022-12-07T08:07:27.691Z,1009.30
2022-12-07T08:08:27.785Z,1009.33
2022-12-07T08:09:27.675Z,1009.29
2022-12-07T08:10:27.683Z,1009.31
2022-12-07T08:11:27.637Z,1009.32
2022-12-07T08:12:27.624Z,1009.34
2022-12-07T08:13:30.919Z,1009.31
2022-12-07T08:14:27.629Z,1009.34
2022-12-07T08:15:27.586Z,1009.33
2022-12-07T08:16:27.640Z,1009.31
2022-12-07T08:17:27.596Z,1009.24
2022-12-07T08:18:27.563Z,1009.34
2022-12-07T08:19:27.545Z,1009.27
2022-12-07T08:20:27.653Z,1009.35
2022-12-07T08:21:27.556Z,1009.34
2022-12-07T08:22:27.519Z,1009.29
2022-12-07T08:23:33.548Z,1009.30
2022-12-07T08:24:28.491Z,1009.26
2022-12-07T08:25:27.487Z,1009.31
2022-12-07T08:26:27.467Z,1009.26
2022-12-07T08:27:27.497Z,1009.29
2022-12-07T08:28:27.449Z,1009.29
2022-12-07T08:29:27.435Z,1009.28
2022-12-07T08:30:27.440Z,1009.29
2022-12-07T08:31:27.496Z,1009.29
2022-12-07T08:32:27.419Z,1009.23
2022-12-07T08:33:27.390Z,1009.30
2022-12-07T08:34:27.382Z,1009.21
2022-12-07T08:35:27.383Z,1009.26
2022-12-07T08:36:27.360Z,1009.26
2022-12-07T08:37:27.376Z,1009.27
2022-12-07T08:38:31.519Z,1009.33
2022-12-07T08:39:32.158Z,1009.31
2022-12-07T08:40:28.326Z,1009.27
2022-12-07T08:41:27.336Z,1009.32
2022-12-07T08:42:27.301Z,1009.32
2022-12-07T08:43:27.318Z,1009.34
2022-12-07T08:44:27.272Z,1009.29
2022-12-07T08:45:27.846Z,1009.34
2022-12-07T08:46:27.319Z,1009.29
2022-12-07T08:47:27.235Z,1009.35
2022-12-07T08:48:27.250Z,1009.33
2022-12-07T08:49:27.243Z,1009.38
2022-12-07T08:50:27.213Z,1009.42
2022-12-07T08:51:27.197Z,1009.42
2022-12-07T08:52:27.184Z,1009.41
2022-12-07T08:53:27.192Z,1009.37
2022-12-07T08:54:27.176Z,1009.38
2022-12-07T08:55:27.179Z,1009.27
2022-12-07T08:56:27.138Z,1009.32
2022-12-07T08:57:27.129Z,1009.26
2022-12-07T08:58:27.118Z,1009.24
2022-12-07T08:59:27.120Z,1009.24
2022-12-07T09:00:27.096Z,1009.27
2022-12-07T09:01:27.149Z,1009.38
2022-12-07T09:02:27.076Z,1009.38
2022-12-07T09:03:27.093Z,1009.42
2022-12-07T09:04:27.055Z,1009.40
2022-12-07T09:05:27.170Z,1009.68
2022-12-07T09:06:27.106Z,1009.74
2022-12-07T09:07:27.024Z,1009.78
2022-12-07T09:08:27.096Z,1009.64
2022-12-07T09:09:27.053Z,1009.69
2022-12-07T09:10:27.003Z,1009.42
2022-12-07T09:11:28.871Z,1009.29
2022-12-07T09:12:26.975Z,1009.31
2022-12-07T09:13:26.976Z,1009.28
2022-12-07T09:14:26.939Z,1009.52
2022-12-07T09:15:26.947Z,1009.73
2022-12-07T09:16:26.993Z,1009.73
2022-12-07T09:17:26.920Z,1009.62
2022-12-07T09:18:26.896Z,1009.56
2022-12-07T09:19:26.880Z,1009.53
2022-12-07T09:20:28.291Z,1009.49
2022-12-07T09:21:26.878Z,1009.52
2022-12-07T09:22:26.846Z,1009.42
2022-12-07T09:23:26.861Z,1009.40
2022-12-07T09:24:26.825Z,1009.39
2022-12-07T09:25:26.852Z,1009.37
2022-12-07T09:26:26.803Z,1009.31
2022-12-07T09:27:26.805Z,1009.32
2022-12-07T09:28:26.798Z,1009.22
2022-12-07T09:29:26.762Z,1009.29
2022-12-07T09:30:26.796Z,1009.27
2022-12-07T09:31:27.097Z,1009.26
2022-12-07T09:32:26.841Z,1009.26
2022-12-07T09:33:26.722Z,1009.19
2022-12-07T09:34:26.777Z,1009.23
2022-12-07T09:35:26.725Z,1009.24
2022-12-07T09:36:26.724Z,1009.26
2022-12-07T09:37:26.703Z,1009.23
2022-12-07T09:38:26.667Z,1009.23
2022-12-07T09:39:26.658Z,1009.23
2022-12-07T09:40:26.643Z,1009.26
2022-12-07T09:41:26.667Z,1009.31
2022-12-07T09:42:26.678Z,1009.39
2022-12-07T09:43:26.605Z,1009.41
2022-12-07T09:44:26.613Z,1009.40
2022-12-07T09:45:26.632Z,1009.40
2022-12-07T09:46:26.739Z,1009.35
2022-12-07T09:47:26.601Z,1009.32
2022-12-07T09:48:26.561Z,1009.30
2022-12-07T09:49:26.533Z,1009.30
2022-12-07T09:50:26.533Z,1009.33
2022-12-07T09:51:26.522Z,1009.31
2022-12-07T09:52:26.517Z,1009.28
2022-12-07T09:53:26.504Z,1009.28
2022-12-07T09:54:26.491Z,1009.21
2022-12-07T09:55:26.571Z,1009.25
2022-12-07T09:56:26.503Z,1009.24
2022-12-07T09:57:26.475Z,1009.17
2022-12-07T09:58:26.435Z,1009.23
2022-12-07T09:59:26.425Z,1009.16
2022-12-07T10:00:26.415Z,1009.22
2022-12-07T10:01:26.490Z,1009.16
2022-12-07T10:02:26.410Z,1009.20
2022-12-07T10:03:26.376Z,1009.17
2022-12-07T10:04:26.412Z,1009.19
2022-12-07T10:05:26.430Z,1009.16
2022-12-07T10:06:26.356Z,1009.15
2022-12-07T10:07:26.343Z,1009.16
2022-12-07T10:08:26.472Z,1009.18
2022-12-07T10:09:26.307Z,1009.13
2022-12-07T10:10:26.303Z,1009.14
2022-12-07T10:11:26.293Z,1009.11
2022-12-07T10:12:26.311Z,1009.20
2022-12-07T10:13:26.292Z,1009.13
2022-12-07T10:14:44.421Z,1009.20
2022-12-07T10:15:27.257Z,1009.14
2022-12-07T10:16:26.294Z,1009.14
2022-12-07T10:17:26.250Z,1009.17
2022-12-07T10:18:26.218Z,1009.16
2022-12-07T10:19:26.198Z,1009.15
2022-12-07T10:20:26.196Z,1009.19
2022-12-07T10:21:26.181Z,1009.10
2022-12-07T10:22:31.619Z,1009.16
2022-12-07T10:23:27.162Z,1009.15
2022-12-07T10:24:26.145Z,1009.15
2022-12-07T10:25:26.133Z,1009.23
2022-12-07T10:26:26.122Z,1009.23
2022-12-07T10:27:26.109Z,1009.15
2022-12-07T10:28:26.139Z,1009.18
2022-12-07T10:29:26.119Z,1009.22
2022-12-07T10:30:26.079Z,1009.16
2022-12-07T10:31:26.122Z,1009.20
2022-12-07T10:32:26.087Z,1009.14
2022-12-07T10:33:26.053Z,1009.16
2022-12-07T10:34:26.070Z,1009.11
2022-12-07T10:35:26.022Z,1009.12
2022-12-07T10:36:26.009Z,1009.09
2022-12-07T10:37:26.000Z,1009.09
2022-12-07T10:38:26.017Z,1009.08
2022-12-07T10:39:25.989Z,1009.04
2022-12-07T10:40:25.963Z,1008.96
2022-12-07T10:41:25.961Z,1008.95
2022-12-07T10:42:25.940Z,1008.94
2022-12-07T10:43:25.944Z,1008.98
2022-12-07T10:44:25.944Z,1008.96
2022-12-07T10:45:26.105Z,1008.96
2022-12-07T10:46:26.092Z,1008.94
2022-12-07T10:47:26.007Z,1008.98
2022-12-07T10:48:25.882Z,1008.90
2022-12-07T10:49:25.876Z,1008.90
2022-12-07T10:50:25.863Z,1008.90
2022-12-07T10:51:25.846Z,1008.90
2022-12-07T10:52:25.838Z,1008.91
2022-12-07T10:53:25.821Z,1008.93
2022-12-07T10:54:25.841Z,1008.87
2022-12-07T10:55:25.801Z,1008.86
2022-12-07T10:56:25.783Z,1008.88
2022-12-07T10:57:25.798Z,1008.86
2022-12-07T10:58:25.759Z,1008.85
2022-12-07T10:59:25.767Z,1008.88
2022-12-07T11:00:25.757Z,1008.81
2022-12-07T11:01:25.899Z,1008.81
2022-12-07T11:02:25.914Z,1008.85
2022-12-07T11:03:25.711Z,1008.78
2022-12-07T11:04:25.709Z,1008.72
2022-12-07T11:05:25.684Z,1008.73
2022-12-07T11:06:25.689Z,1008.68
2022-12-07T11:07:25.662Z,1008.74
2022-12-07T11:08:25.734Z,1008.71
2022-12-07T11:09:44.875Z,1008.70
2022-12-07T11:10:26.646Z,1008.62
2022-12-07T11:11:25.615Z,1008.66
2022-12-07T11:12:25.643Z,1008.65
2022-12-07T11:13:28.623Z,1008.60
2022-12-07T11:14:25.606Z,1008.65
2022-12-07T11:15:25.570Z,1008.70
2022-12-07T11:16:25.628Z,1008.58
2022-12-07T11:17:25.575Z,1008.53
2022-12-07T11:18:25.533Z,1008.54
2022-12-07T11:19:28.457Z,1008.52
2022-12-07T11:20:25.537Z,1008.57
2022-12-07T11:21:25.527Z,1008.44
2022-12-07T11:22:25.525Z,1008.46
2022-12-07T11:23:25.477Z,1008.43
2022-12-07T11:24:25.488Z,1008.46
2022-12-07T11:25:28.866Z,1008.37
2022-12-07T11:26:25.452Z,1008.45
2022-12-07T11:27:25.442Z,1008.43
2022-12-07T11:28:25.434Z,1008.38
2022-12-07T11:29:25.413Z,1008.38
2022-12-07T11:30:25.395Z,1008.42
2022-12-07T11:31:29.270Z,1008.37
2022-12-07T11:32:25.565Z,1008.34
2022-12-07T11:33:25.402Z,1008.37
2022-12-07T11:34:25.379Z,1008.39
2022-12-07T11:35:25.346Z,1008.33
2022-12-07T11:36:25.348Z,1008.33
2022-12-07T11:37:25.323Z,1008.43
2022-12-07T11:38:28.217Z,1008.38
2022-12-07T11:39:25.315Z,1008.38
2022-12-07T11:40:25.305Z,1008.32
2022-12-07T11:41:25.276Z,1008.42
2022-12-07T11:42:25.281Z,1008.35
2022-12-07T11:43:25.254Z,1008.33
2022-12-07T11:44:27.469Z,1008.31
2022-12-07T11:45:25.244Z,1008.34
2022-12-07T11:46:25.297Z,1008.32
2022-12-07T11:47:25.224Z,1008.29
2022-12-07T11:48:25.191Z,1008.31
2022-12-07T11:49:25.278Z,1008.34
2022-12-07T11:50:25.608Z,1008.33
2022-12-07T11:51:30.400Z,1008.34
2022-12-07T11:52:26.190Z,1008.29
2022-12-07T11:53:25.146Z,1008.37
2022-12-07T11:54:25.128Z,1008.25
2022-12-07T11:55:25.128Z,1008.28
2022-12-07T11:56:25.102Z,1008.27
2022-12-07T11:57:25.105Z,1008.31
2022-12-07T11:58:25.103Z,1008.24
2022-12-07T11:59:25.075Z,1008.29
2022-12-07T12:00:25.058Z,1008.28
2022-12-07T12:01:25.069Z,1008.23
2022-12-07T12:02:25.241Z,1008.22
2022-12-07T12:03:25.158Z,1008.28
2022-12-07T12:04:25.009Z,1008.25
2022-12-07T12:05:25.049Z,1008.27